createdAt,value
2022-12-17T00:07:10.619Z,14.76
2022-12-17T00:17:30.319Z,14.78
2022-12-17T00:27:50.536Z,14.81
2022-12-17T00:38:10.361Z,14.80
2022-12-17T00:48:30.576Z,14.86
2022-12-17T00:58:50.645Z,14.86
2022-12-17T01:09:10.368Z,14.85
2022-12-17T01:19:30.208Z,14.90
2022-12-17T01:29:50.402Z,14.89
2022-12-17T01:40:10.343Z,14.90
2022-12-17T01:50:30.109Z,14.93
2022-12-17T02:00:50.216Z,14.92
2022-12-17T02:11:19.183Z,14.94
2022-12-17T02:21:38.991Z,14.95
2022-12-17T02:31:59.859Z,14.95
2022-12-17T02:42:19.773Z,14.95
2022-12-17T02:52:39.413Z,14.93
2022-12-17T03:02:59.291Z,14.93
2022-12-17T03:13:19.411Z,14.92
2022-12-17T03:23:39.652Z,14.96
2022-12-17T03:33:59.829Z,14.90
2022-12-17T03:44:19.826Z,14.76
2022-12-17T03:54:39.634Z,14.56
2022-12-17T04:04:59.483Z,14.38
2022-12-17T04:15:19.500Z,14.23
2022-12-17T04:25:39.279Z,14.04
2022-12-17T04:35:59.154Z,13.90
2022-12-17T04:46:20.249Z,13.76
2022-12-17T04:56:40.440Z,13.61
2022-12-17T05:07:00.210Z,13.64
2022-12-17T05:17:20.380Z,13.71
2022-12-17T05:27:40.061Z,13.83
2022-12-17T05:37:59.853Z,14.01
2022-12-17T05:48:19.807Z,14.15
2022-12-17T05:58:40.101Z,14.29
2022-12-17T06:09:00.384Z,14.38
2022-12-17T06:19:20.567Z,14.46
2022-12-17T06:29:40.175Z,14.54
2022-12-17T06:39:59.825Z,14.60
2022-12-17T06:50:19.798Z,14.60
2022-12-17T07:00:39.584Z,14.60
2022-12-17T07:10:59.275Z,14.60
2022-12-17T07:21:19.453Z,14.60
2022-12-17T07:31:39.367Z,14.62
2022-12-17T07:41:59.047Z,14.61
2022-12-17T07:52:19.274Z,14.60
2022-12-17T08:02:39.427Z,14.59
2022-12-17T08:13:14.258Z,14.63
2022-12-17T08:23:34.848Z,14.65
2022-12-17T08:33:55.175Z,14.69
2022-12-17T08:44:15.068Z,14.68
2022-12-17T08:54:35.084Z,14.68
2022-12-17T09:04:55.269Z,14.72
2022-12-17T09:15:15.173Z,14.76
2022-12-17T09:25:35.369Z,14.83
2022-12-17T09:35:58.379Z,14.88
2022-12-17T09:46:44.416Z,15.00
2022-12-17T09:57:04.304Z,15.07
2022-12-17T10:07:30.561Z,15.11
2022-12-17T10:17:50.238Z,15.16
2022-12-17T10:28:10.240Z,15.21
2022-12-17T10:38:43.796Z,15.13
2022-12-17T10:49:08.318Z,15.12
2022-12-17T10:59:48.006Z,15.14
2022-12-17T11:10:10.021Z,15.12
2022-12-17T11:20:44.294Z,15.03
2022-12-17T11:31:08.494Z,14.95
2022-12-17T11:41:37.063Z,14.82
2022-12-17T11:52:09.104Z,14.79
2022-12-17T12:02:53.582Z,14.89
2022-12-17T12:13:36.901Z,14.95
2022-12-17T12:24:18.211Z,15.00
2022-12-17T12:34:40.523Z,15.01
2022-12-17T12:45:11.973Z,15.04
2022-12-17T12:55:32.183Z,14.97
2022-12-17T13:05:39.816Z,15.01
2022-12-17T13:15:44.742Z,14.97
2022-12-17T13:25:46.263Z,14.84
2022-12-17T13:36:06.960Z,14.70
2022-12-17T13:46:24.026Z,14.56
2022-12-17T13:56:33.429Z,14.44
2022-12-17T14:06:37.868Z,14.29
2022-12-17T14:16:40.442Z,14.15
2022-12-17T14:26:51.616Z,13.98
2022-12-17T14:36:58.186Z,13.89
2022-12-17T14:47:34.259Z,13.78
2022-12-17T14:57:36.424Z,13.65
2022-12-17T15:07:38.789Z,13.57
2022-12-17T15:17:40.311Z,13.50
2022-12-17T15:27:41.695Z,13.49
2022-12-17T15:37:43.057Z,13.53
2022-12-17T15:47:44.462Z,13.69
2022-12-17T15:57:46.019Z,13.79
2022-12-17T16:07:47.716Z,13.90
2022-12-17T16:17:49.217Z,13.98
2022-12-17T16:27:50.944Z,14.01
2022-12-17T16:37:52.329Z,14.03
2022-12-17T16:47:53.694Z,14.08
2022-12-17T16:57:55.170Z,14.09
2022-12-17T17:07:56.644Z,14.13
2022-12-17T17:18:01.598Z,14.15
2022-12-17T17:28:03.678Z,14.19
2022-12-17T17:38:09.944Z,14.19
2022-12-17T17:48:11.369Z,14.25
2022-12-17T17:58:15.558Z,14.28
2022-12-17T18:08:16.960Z,14.25
2022-12-17T18:18:18.345Z,14.30
2022-12-17T18:28:19.729Z,14.29
2022-12-17T18:38:21.121Z,14.33
2022-12-17T18:48:22.605Z,14.37
2022-12-17T18:58:24.075Z,14.34
2022-12-17T19:08:27.890Z,14.23
2022-12-17T19:18:29.412Z,14.05
2022-12-17T19:28:30.884Z,13.88
2022-12-17T19:38:32.770Z,13.76
2022-12-17T19:48:34.988Z,13.63
2022-12-17T19:58:36.923Z,13.47
2022-12-17T20:08:39.001Z,13.34
2022-12-17T20:18:45.122Z,13.32
2022-12-17T20:28:48.223Z,13.38
2022-12-17T20:38:49.691Z,13.48
2022-12-17T20:48:51.449Z,13.61
2022-12-17T20:59:00.034Z,13.71
2022-12-17T21:09:01.619Z,13.77
2022-12-17T21:19:04.119Z,13.85
2022-12-17T21:29:06.138Z,13.88
2022-12-17T21:39:09.315Z,13.89
2022-12-17T21:49:11.296Z,13.91
2022-12-17T21:59:13.504Z,13.92
2022-12-17T22:09:24.938Z,13.97
2022-12-17T22:19:36.454Z,14.00
2022-12-17T22:29:56.693Z,14.07
2022-12-17T22:44:31.158Z,14.08
2022-12-17T22:50:25.991Z,14.12
2022-12-17T23:00:32.003Z,14.12
2022-12-17T23:10:33.419Z,14.13
2022-12-17T23:20:35.507Z,14.16
2022-12-17T23:30:37.979Z,14.17
2022-12-17T23:40:39.431Z,14.14
2022-12-17T23:50:40.933Z,14.17
